createdAt,value
2023-07-04T03:10:24.985Z,17.90
2023-07-04T03:12:52.363Z,17.88
2023-07-04T03:15:19.041Z,17.86
2023-07-04T03:17:49.623Z,17.85
2023-07-04T03:20:17.247Z,17.85
2023-07-04T03:22:46.051Z,17.84
2023-07-04T03:25:16.283Z,17.82
2023-07-04T03:27:43.747Z,17.80
2023-07-04T03:30:12.548Z,17.78
2023-07-04T03:32:40.657Z,17.77
2023-07-04T03:35:08.615Z,17.78
2023-07-04T03:37:38.600Z,17.80
2023-07-04T03:40:10.391Z,17.79
2023-07-04T03:42:39.413Z,17.78
2023-07-04T03:45:07.589Z,17.77
2023-07-04T03:47:34.836Z,17.78
2023-07-04T03:50:05.119Z,17.79
2023-07-04T03:52:34.402Z,17.79
2023-07-04T03:55:03.956Z,17.80
2023-07-04T03:57:30.987Z,17.83
2023-07-04T03:59:59.503Z,17.86
2023-07-04T04:02:26.249Z,17.90
2023-07-04T04:04:53.290Z,17.94
2023-07-04T04:07:20.302Z,17.96
2023-07-04T04:09:47.385Z,17.99
2023-07-04T04:12:14.220Z,18.02
2023-07-04T04:14:41.279Z,18.05
2023-07-04T04:17:12.163Z,18.08
2023-07-04T04:19:39.078Z,18.12
2023-07-04T04:22:05.858Z,18.16
2023-07-04T04:24:33.146Z,18.20
2023-07-04T04:27:03.891Z,18.22
2023-07-04T04:29:31.816Z,18.25
2023-07-04T04:31:58.713Z,18.30
2023-07-04T04:34:26.330Z,18.33
2023-07-04T04:36:53.668Z,18.35
2023-07-04T04:39:23.790Z,18.39
2023-07-04T04:41:53.215Z,18.46
2023-07-04T04:44:21.126Z,18.53
2023-07-04T04:46:50.479Z,18.58
2023-07-04T04:49:18.005Z,18.61
2023-07-04T04:51:45.616Z,18.63
2023-07-04T04:54:14.133Z,18.65
2023-07-04T04:56:41.043Z,18.66
2023-07-04T04:59:12.485Z,18.69
2023-07-04T05:01:39.849Z,18.75
2023-07-04T05:04:07.158Z,18.82
2023-07-04T05:06:34.282Z,18.91
2023-07-04T05:09:01.107Z,19.01
2023-07-04T05:11:28.191Z,19.09
2023-07-04T05:13:55.259Z,19.19
2023-07-04T05:16:22.423Z,19.30
2023-07-04T05:18:51.812Z,19.43
2023-07-04T05:21:23.706Z,19.53
2023-07-04T05:23:52.770Z,19.62
2023-07-04T05:26:25.378Z,19.79
2023-07-04T05:28:54.624Z,20.00
2023-07-04T05:31:27.324Z,20.22
2023-07-04T05:33:55.736Z,20.37
2023-07-04T05:36:27.175Z,20.53
2023-07-04T05:39:00.389Z,20.66
2023-07-04T05:41:29.378Z,20.80
2023-07-04T05:43:57.784Z,20.94
2023-07-04T05:46:30.030Z,21.10
2023-07-04T05:48:59.323Z,21.23
2023-07-04T05:51:26.384Z,21.40
2023-07-04T05:53:53.814Z,21.55
2023-07-04T05:56:26.747Z,21.70
2023-07-04T05:58:56.316Z,21.86
2023-07-04T06:01:30.341Z,22.01
2023-07-04T06:03:59.661Z,22.15
2023-07-04T06:06:30.767Z,22.29
2023-07-04T06:09:03.524Z,22.37
2023-07-04T06:11:53.950Z,22.46
2023-07-04T06:14:28.923Z,22.59
2023-07-04T06:17:00.638Z,22.72
2023-07-04T06:27:56.482Z,23.08
2023-07-04T06:30:30.373Z,23.22
2023-07-04T06:32:59.646Z,23.35
2023-07-04T06:35:33.632Z,23.48
2023-07-04T06:38:00.466Z,23.60
2023-07-04T06:40:27.692Z,23.71
2023-07-04T06:42:54.488Z,23.80
2023-07-04T06:45:23.598Z,23.89
2023-07-04T06:47:50.633Z,24.01
2023-07-04T06:50:18.110Z,24.08
2023-07-04T06:52:44.737Z,24.15
2023-07-04T06:55:12.731Z,24.19
2023-07-04T06:57:39.539Z,24.22
2023-07-04T07:00:06.951Z,24.32
2023-07-04T07:02:35.707Z,24.42
2023-07-04T07:05:05.712Z,24.48
2023-07-04T07:07:32.621Z,24.58
2023-07-04T07:09:59.698Z,24.69
2023-07-04T07:12:30.799Z,24.80
2023-07-04T07:14:57.760Z,24.92
2023-07-04T07:17:26.549Z,25.03
2023-07-04T07:37:44.482Z,25.48
2023-07-04T07:40:18.629Z,25.51
2023-07-04T07:42:46.263Z,25.51
2023-07-04T07:45:15.542Z,25.54
2023-07-04T07:47:42.836Z,25.57
2023-07-04T07:50:09.633Z,25.53
2023-07-04T07:52:36.558Z,25.56
2023-07-04T07:55:06.454Z,25.65
2023-07-04T07:57:32.965Z,25.76
2023-07-04T08:00:01.854Z,25.81
2023-07-04T08:02:28.476Z,25.87
2023-07-04T11:38:17.593Z,28.37
2023-07-04T11:40:49.589Z,28.38
2023-07-04T11:43:25.363Z,28.39
2023-07-04T11:46:03.195Z,28.36
2023-07-04T11:48:32.868Z,28.32
2023-07-04T11:51:11.807Z,28.30
2023-07-04T11:53:49.194Z,28.32
2023-07-04T11:56:23.834Z,28.34
2023-07-04T12:16:06.842Z,28.01
2023-07-04T12:18:38.388Z,27.93
2023-07-04T12:21:04.906Z,27.91
2023-07-04T12:23:34.450Z,27.90
2023-07-04T12:26:01.164Z,27.87
2023-07-04T12:28:31.859Z,27.87
2023-07-04T12:33:46.096Z,27.85
2023-07-04T12:36:20.041Z,27.81
2023-07-04T12:38:51.410Z,27.76
2023-07-04T12:41:25.963Z,27.73
2023-07-04T12:51:44.957Z,27.68
2023-07-04T12:54:15.747Z,27.64
2023-07-04T12:56:48.469Z,27.62
2023-07-04T12:59:36.659Z,27.61
2023-07-04T13:02:14.505Z,27.60
2023-07-04T13:04:44.780Z,27.56
2023-07-04T13:07:14.328Z,27.51
2023-07-04T13:09:43.413Z,27.46
2023-07-04T13:27:28.772Z,27.19
2023-07-04T13:52:34.512Z,27.08
2023-07-04T13:55:04.470Z,27.09
2023-07-04T13:57:32.616Z,27.08
2023-07-04T14:00:02.819Z,27.10
2023-07-04T14:07:37.072Z,27.14
2023-07-04T14:10:05.908Z,27.15
2023-07-04T14:12:33.854Z,27.15
2023-07-04T16:38:44.949Z,26.60
2023-07-04T16:41:15.336Z,26.56
2023-07-04T16:43:43.377Z,26.56
2023-07-04T16:46:15.140Z,26.55
2023-07-04T16:48:43.339Z,26.53
2023-07-04T16:51:11.261Z,26.51
2023-07-04T16:53:41.657Z,26.49
2023-07-04T16:56:09.845Z,26.45
2023-07-04T16:58:40.608Z,26.42
2023-07-04T17:01:11.342Z,26.39
2023-07-04T17:03:39.560Z,26.36
2023-07-04T17:06:09.675Z,26.33
2023-07-04T17:08:39.613Z,26.30
2023-07-04T17:11:10.340Z,26.29
2023-07-04T17:13:41.604Z,26.29
2023-07-04T17:16:12.825Z,26.28
2023-07-04T17:18:45.642Z,26.25
2023-07-04T17:21:13.686Z,26.24
2023-07-04T17:23:44.377Z,26.24
2023-07-04T17:26:12.509Z,26.23
2023-07-04T17:28:40.660Z,26.20
2023-07-04T17:31:10.381Z,26.14
2023-07-04T17:33:38.538Z,26.10
2023-07-04T17:36:09.694Z,26.07
2023-07-04T17:38:40.409Z,26.04
2023-07-04T17:41:11.665Z,26.01
2023-07-04T17:43:41.204Z,25.99
2023-07-04T17:46:13.688Z,25.98
2023-07-04T17:48:52.730Z,25.97
2023-07-04T17:51:23.773Z,25.93
2023-07-04T17:53:52.400Z,25.90
2023-07-04T17:56:28.833Z,25.88
2023-07-04T17:59:00.661Z,25.87
2023-07-04T18:01:29.514Z,25.86
2023-07-04T18:03:57.713Z,25.83
2023-07-04T18:06:27.982Z,25.78
2023-07-04T18:08:55.951Z,25.73
2023-07-04T18:11:27.965Z,25.69
2023-07-04T18:13:58.924Z,25.69
2023-07-04T18:16:31.508Z,25.68
2023-07-04T18:19:01.705Z,25.68
2023-07-04T18:21:34.590Z,25.68
2023-07-04T18:24:04.284Z,25.69
2023-07-04T18:26:34.492Z,25.66
2023-07-04T18:29:08.288Z,25.63
2023-07-04T18:31:36.728Z,25.61
2023-07-04T18:34:07.479Z,25.58
2023-07-04T18:36:37.672Z,25.57
2023-07-04T18:39:06.976Z,25.55
2023-07-04T18:41:41.999Z,25.53
2023-07-04T18:44:11.075Z,25.50
2023-07-04T18:46:40.997Z,25.47
2023-07-04T18:49:09.816Z,25.43
2023-07-04T18:51:40.838Z,25.40
2023-07-04T18:54:16.271Z,25.36
2023-07-04T18:56:46.452Z,25.32
2023-07-04T18:59:14.899Z,25.28
2023-07-04T19:01:44.286Z,25.26
2023-07-04T19:04:12.459Z,25.22
2023-07-04T19:06:43.498Z,25.18
2023-07-04T19:09:11.752Z,25.14
2023-07-04T19:11:45.710Z,25.09
2023-07-04T19:14:24.506Z,25.04
2023-07-04T19:16:59.616Z,24.97
2023-07-04T19:19:33.736Z,24.90
2023-07-04T19:22:09.156Z,24.83
2023-07-04T19:24:41.960Z,24.79
2023-07-04T19:27:15.746Z,24.73
2023-07-04T19:29:50.476Z,24.68
2023-07-04T19:32:18.917Z,24.62
2023-07-04T19:34:50.170Z,24.56
2023-07-04T19:37:19.749Z,24.50
2023-07-04T19:39:48.174Z,24.44
2023-07-04T19:42:16.199Z,24.39
2023-07-04T19:44:44.462Z,24.33
2023-07-04T19:47:12.715Z,24.26
2023-07-04T19:49:40.985Z,24.22
2023-07-04T20:07:08.009Z,23.78
2023-07-04T20:09:35.836Z,23.73
2023-07-04T20:12:07.376Z,23.68
2023-07-04T20:14:35.355Z,23.64
2023-07-04T20:17:03.383Z,23.60
2023-07-04T20:19:31.334Z,23.57
